Kezdőlap
METAR-TAF:

METAR-TAF

Repülőterek :

Umiujaq, Québec, Kanada

földrajzi szélesség: 56-32N, földrajzi hosszúság: 076-31W, magasság: 71 m

Jelenlegi meteorológiai megfigyelések

A jelentés 27 perccel ezelõtt készült, 18:40 UTC
Dél-délkeleti szél 13 kt
Hőmérséklet -3°C
Páratartalom 93%
Légköri nyomás 999 hPa
Látótávolság: 0.8 km
Szórványos felhőzet 1400 lábon
Borult 1800 lábon
enyhe hózápor, alacsony hófúvás

METAR: CYMU 141840Z 16013KT 1/2SM -SHSN DRSN SCT014 OVC018 M03/M04 A2951 RMK SN2ST2SC4 SLP999

Idő: 14:07 (19:07 UTC)


TAF: hiányzik

Meteorológiai megfigyelések és előrejelzések több, mint 4000 repülőtéren (METAR és TAF jelentéseket).

A térképen piros és sárga pontok jelzik az elérhető meteorológiai állomásokat.

Mozgassa az egeret a pont fölött, hogy megjelenjen az állomás neve.

Azután kattintson az időjárási megfigyelések és előrejelzések megtekintéséhez.

A térkép megváltoztatása: kattintson a fekete keresztel jelölt zöld gombra ráközelítéshez, a vonallal jelölt zöld gombra távolításhoz, vagy a zöld nyilakra a szomszédos térképek eléréséhez.


METAR-TAF: